sensor_id;sensor_type;location;lat;lon;timestamp;P1;durP1;ratioP1;P2;durP2;ratioP2
21816;SDS011;13247;47.504;7.382;2023-05-09T00:02:33;1.50;;;1.40;;
21816;SDS011;13247;47.504;7.382;2023-05-09T00:05:19;2.30;;;1.73;;
21816;SDS011;13247;47.504;7.382;2023-05-09T00:08:04;3.13;;;1.83;;
21816;SDS011;13247;47.504;7.382;2023-05-09T00:10:49;2.78;;;2.15;;
21816;SDS011;13247;47.504;7.382;2023-05-09T00:13:33;6.63;;;2.38;;
21816;SDS011;13247;47.504;7.382;2023-05-09T00:16:19;2.13;;;1.92;;
21816;SDS011;13247;47.504;7.382;2023-05-09T00:19:06;3.28;;;2.00;;
21816;SDS011;13247;47.504;7.382;2023-05-09T00:21:50;7.15;;;2.53;;
21816;SDS011;13247;47.504;7.382;2023-05-09T00:24:35;1.90;;;1.75;;
21816;SDS011;13247;47.504;7.382;2023-05-09T00:27:20;3.20;;;1.60;;
21816;SDS011;13247;47.504;7.382;2023-05-09T00:30:04;3.25;;;1.80;;
21816;SDS011;13247;47.504;7.382;2023-05-09T00:32:50;2.28;;;2.03;;
21816;SDS011;13247;47.504;7.382;2023-05-09T00:35:34;3.33;;;2.00;;
21816;SDS011;13247;47.504;7.382;2023-05-09T00:38:19;2.00;;;1.80;;
21816;SDS011;13247;47.504;7.382;2023-05-09T00:41:07;2.22;;;1.90;;
21816;SDS011;13247;47.504;7.382;2023-05-09T00:43:51;2.40;;;1.90;;
21816;SDS011;13247;47.504;7.382;2023-05-09T00:46:36;2.88;;;2.35;;
21816;SDS011;13247;47.504;7.382;2023-05-09T00:49:22;2.25;;;1.80;;
21816;SDS011;13247;47.504;7.382;2023-05-09T00:52:07;8.38;;;2.42;;
21816;SDS011;13247;47.504;7.382;2023-05-09T00:54:52;2.38;;;2.00;;
21816;SDS011;13247;47.504;7.382;2023-05-09T00:57:38;6.57;;;2.17;;
21816;SDS011;13247;47.504;7.382;2023-05-09T01:00:22;2.55;;;2.00;;
21816;SDS011;13247;47.504;7.382;2023-05-09T01:03:08;3.60;;;1.70;;
21816;SDS011;13247;47.504;7.382;2023-05-09T01:06:02;4.28;;;2.00;;
21816;SDS011;13247;47.504;7.382;2023-05-09T01:09:06;3.60;;;1.95;;
21816;SDS011;13247;47.504;7.382;2023-05-09T01:15:35;2.20;;;1.90;;
21816;SDS011;13247;47.504;7.382;2023-05-09T01:21:43;2.58;;;1.70;;
21816;SDS011;13247;47.504;7.382;2023-05-09T01:27:56;2.60;;;1.83;;
21816;SDS011;13247;47.504;7.382;2023-05-09T01:30:59;3.25;;;1.85;;
21816;SDS011;13247;47.504;7.382;2023-05-09T01:33:48;3.03;;;2.00;;
21816;SDS011;13247;47.504;7.382;2023-05-09T01:36:39;8.07;;;1.73;;
21816;SDS011;13247;47.504;7.382;2023-05-09T01:39:26;3.78;;;1.90;;
21816;SDS011;13247;47.504;7.382;2023-05-09T01:42:14;2.50;;;2.30;;
21816;SDS011;13247;47.504;7.382;2023-05-09T01:45:02;3.60;;;1.88;;
21816;SDS011;13247;47.504;7.382;2023-05-09T01:47:49;2.38;;;1.90;;
21816;SDS011;13247;47.504;7.382;2023-05-09T01:50:35;3.22;;;2.35;;
21816;SDS011;13247;47.504;7.382;2023-05-09T01:53:22;2.95;;;2.08;;
21816;SDS011;13247;47.504;7.382;2023-05-09T01:56:08;3.63;;;2.00;;
21816;SDS011;13247;47.504;7.382;2023-05-09T01:58:54;11.65;;;2.03;;
21816;SDS011;13247;47.504;7.382;2023-05-09T02:01:41;2.70;;;2.00;;
21816;SDS011;13247;47.504;7.382;2023-05-09T02:04:28;2.17;;;1.90;;
21816;SDS011;13247;47.504;7.382;2023-05-09T02:07:14;4.28;;;2.00;;
21816;SDS011;13247;47.504;7.382;2023-05-09T02:10:00;4.65;;;2.20;;
21816;SDS011;13247;47.504;7.382;2023-05-09T02:12:47;2.53;;;2.03;;
21816;SDS011;13247;47.504;7.382;2023-05-09T02:15:32;3.53;;;1.85;;
21816;SDS011;13247;47.504;7.382;2023-05-09T02:18:17;2.88;;;1.95;;
21816;SDS011;13247;47.504;7.382;2023-05-09T02:21:01;2.65;;;1.98;;
21816;SDS011;13247;47.504;7.382;2023-05-09T02:23:47;2.15;;;1.95;;
21816;SDS011;13247;47.504;7.382;2023-05-09T02:26:32;4.40;;;2.00;;
21816;SDS011;13247;47.504;7.382;2023-05-09T02:29:18;6.25;;;2.50;;
21816;SDS011;13247;47.504;7.382;2023-05-09T02:32:21;6.07;;;2.70;;
21816;SDS011;13247;47.504;7.382;2023-05-09T02:35:09;2.78;;;1.95;;
21816;SDS011;13247;47.504;7.382;2023-05-09T02:37:56;6.88;;;2.10;;
21816;SDS011;13247;47.504;7.382;2023-05-09T02:40:42;3.22;;;2.20;;
21816;SDS011;13247;47.504;7.382;2023-05-09T02:43:28;2.40;;;2.20;;
21816;SDS011;13247;47.504;7.382;2023-05-09T02:46:14;5.28;;;1.80;;
21816;SDS011;13247;47.504;7.382;2023-05-09T02:48:59;5.93;;;2.10;;
21816;SDS011;13247;47.504;7.382;2023-05-09T02:51:43;4.13;;;2.10;;
21816;SDS011;13247;47.504;7.382;2023-05-09T02:54:28;3.10;;;2.20;;
21816;SDS011;13247;47.504;7.382;2023-05-09T02:57:13;2.30;;;2.13;;
21816;SDS011;13247;47.504;7.382;2023-05-09T02:59:58;3.25;;;2.00;;
21816;SDS011;13247;47.504;7.382;2023-05-09T03:02:42;2.72;;;2.42;;
21816;SDS011;13247;47.504;7.382;2023-05-09T03:05:27;5.75;;;2.35;;
21816;SDS011;13247;47.504;7.382;2023-05-09T03:08:12;2.40;;;2.20;;
21816;SDS011;13247;47.504;7.382;2023-05-09T03:10:57;10.55;;;2.40;;
21816;SDS011;13247;47.504;7.382;2023-05-09T03:13:41;2.63;;;2.40;;
21816;SDS011;13247;47.504;7.382;2023-05-09T03:16:26;2.97;;;2.13;;
21816;SDS011;13247;47.504;7.382;2023-05-09T03:19:10;2.63;;;2.38;;
21816;SDS011;13247;47.504;7.382;2023-05-09T03:21:55;3.00;;;2.30;;
21816;SDS011;13247;47.504;7.382;2023-05-09T03:24:39;2.55;;;2.25;;
21816;SDS011;13247;47.504;7.382;2023-05-09T03:27:24;2.53;;;2.33;;
21816;SDS011;13247;47.504;7.382;2023-05-09T03:30:09;2.20;;;1.85;;
21816;SDS011;13247;47.504;7.382;2023-05-09T03:32:53;4.22;;;2.50;;
21816;SDS011;13247;47.504;7.382;2023-05-09T03:35:38;2.78;;;2.45;;
21816;SDS011;13247;47.504;7.382;2023-05-09T03:38:23;2.40;;;2.20;;
21816;SDS011;13247;47.504;7.382;2023-05-09T03:41:08;3.00;;;2.70;;
21816;SDS011;13247;47.504;7.382;2023-05-09T03:43:53;3.15;;;2.53;;
21816;SDS011;13247;47.504;7.382;2023-05-09T03:46:38;4.50;;;2.50;;
21816;SDS011;13247;47.504;7.382;2023-05-09T03:49:22;4.63;;;2.45;;
21816;SDS011;13247;47.504;7.382;2023-05-09T03:52:07;2.63;;;2.40;;
21816;SDS011;13247;47.504;7.382;2023-05-09T03:54:51;3.92;;;2.10;;
21816;SDS011;13247;47.504;7.382;2023-05-09T03:57:36;3.38;;;2.97;;
21816;SDS011;13247;47.504;7.382;2023-05-09T04:00:21;2.83;;;2.40;;
21816;SDS011;13247;47.504;7.382;2023-05-09T04:03:06;6.55;;;2.80;;
21816;SDS011;13247;47.504;7.382;2023-05-09T04:05:52;3.20;;;2.25;;
21816;SDS011;13247;47.504;7.382;2023-05-09T04:08:36;2.53;;;2.13;;
21816;SDS011;13247;47.504;7.382;2023-05-09T04:11:21;2.30;;;2.08;;
21816;SDS011;13247;47.504;7.382;2023-05-09T04:14:05;2.35;;;2.08;;
21816;SDS011;13247;47.504;7.382;2023-05-09T04:16:50;2.70;;;2.50;;
21816;SDS011;13247;47.504;7.382;2023-05-09T04:19:34;6.22;;;2.40;;
21816;SDS011;13247;47.504;7.382;2023-05-09T04:22:19;3.35;;;2.55;;
21816;SDS011;13247;47.504;7.382;2023-05-09T04:25:04;4.43;;;2.33;;
21816;SDS011;13247;47.504;7.382;2023-05-09T04:27:48;4.55;;;2.35;;
21816;SDS011;13247;47.504;7.382;2023-05-09T04:30:33;2.55;;;2.20;;
21816;SDS011;13247;47.504;7.382;2023-05-09T04:33:19;2.75;;;2.20;;
21816;SDS011;13247;47.504;7.382;2023-05-09T04:36:04;2.40;;;2.17;;
21816;SDS011;13247;47.504;7.382;2023-05-09T04:38:49;2.20;;;2.00;;
21816;SDS011;13247;47.504;7.382;2023-05-09T04:41:34;2.30;;;2.10;;
21816;SDS011;13247;47.504;7.382;2023-05-09T04:44:19;2.63;;;2.30;;
21816;SDS011;13247;47.504;7.382;2023-05-09T04:47:05;3.83;;;2.40;;
21816;SDS011;13247;47.504;7.382;2023-05-09T04:49:49;3.22;;;2.78;;
21816;SDS011;13247;47.504;7.382;2023-05-09T04:52:34;2.55;;;2.35;;
21816;SDS011;13247;47.504;7.382;2023-05-09T04:55:19;7.15;;;3.20;;
21816;SDS011;13247;47.504;7.382;2023-05-09T04:58:03;3.80;;;2.58;;
21816;SDS011;13247;47.504;7.382;2023-05-09T05:00:48;3.33;;;2.50;;
21816;SDS011;13247;47.504;7.382;2023-05-09T05:03:34;4.35;;;2.55;;
21816;SDS011;13247;47.504;7.382;2023-05-09T05:06:18;4.20;;;2.78;;
21816;SDS011;13247;47.504;7.382;2023-05-09T05:09:03;4.85;;;2.97;;
21816;SDS011;13247;47.504;7.382;2023-05-09T05:11:48;3.47;;;2.65;;
21816;SDS011;13247;47.504;7.382;2023-05-09T05:14:32;3.13;;;2.42;;
21816;SDS011;13247;47.504;7.382;2023-05-09T05:17:17;3.58;;;2.42;;
21816;SDS011;13247;47.504;7.382;2023-05-09T05:20:02;4.05;;;2.60;;
21816;SDS011;13247;47.504;7.382;2023-05-09T05:22:49;2.80;;;2.15;;
21816;SDS011;13247;47.504;7.382;2023-05-09T05:25:34;2.80;;;2.50;;
21816;SDS011;13247;47.504;7.382;2023-05-09T05:28:18;3.03;;;2.70;;
21816;SDS011;13247;47.504;7.382;2023-05-09T05:31:03;7.90;;;5.15;;
21816;SDS011;13247;47.504;7.382;2023-05-09T05:33:48;7.78;;;4.72;;
21816;SDS011;13247;47.504;7.382;2023-05-09T05:36:32;6.18;;;4.50;;
21816;SDS011;13247;47.504;7.382;2023-05-09T05:39:17;4.53;;;3.50;;
21816;SDS011;13247;47.504;7.382;2023-05-09T05:42:01;6.25;;;3.85;;
21816;SDS011;13247;47.504;7.382;2023-05-09T05:44:46;3.38;;;2.83;;
21816;SDS011;13247;47.504;7.382;2023-05-09T05:47:31;6.10;;;2.90;;
21816;SDS011;13247;47.504;7.382;2023-05-09T05:50:16;4.13;;;2.45;;
21816;SDS011;13247;47.504;7.382;2023-05-09T05:53:01;3.33;;;1.95;;
21816;SDS011;13247;47.504;7.382;2023-05-09T05:55:46;2.92;;;2.10;;
21816;SDS011;13247;47.504;7.382;2023-05-09T05:58:31;2.10;;;1.90;;
21816;SDS011;13247;47.504;7.382;2023-05-09T06:01:16;2.17;;;1.95;;
21816;SDS011;13247;47.504;7.382;2023-05-09T06:04:00;1.83;;;1.70;;
21816;SDS011;13247;47.504;7.382;2023-05-09T06:06:45;3.85;;;1.98;;
21816;SDS011;13247;47.504;7.382;2023-05-09T06:09:31;1.77;;;1.50;;
21816;SDS011;13247;47.504;7.382;2023-05-09T06:12:15;1.98;;;1.63;;
21816;SDS011;13247;47.504;7.382;2023-05-09T06:15:00;1.92;;;1.77;;
21816;SDS011;13247;47.504;7.382;2023-05-09T06:17:48;4.00;;;2.00;;
21816;SDS011;13247;47.504;7.382;2023-05-09T06:20:32;1.77;;;1.65;;
21816;SDS011;13247;47.504;7.382;2023-05-09T06:23:18;2.00;;;1.80;;
21816;SDS011;13247;47.504;7.382;2023-05-09T06:26:04;1.80;;;1.60;;
21816;SDS011;13247;47.504;7.382;2023-05-09T06:28:49;3.35;;;1.90;;
21816;SDS011;13247;47.504;7.382;2023-05-09T06:31:34;4.50;;;1.90;;
21816;SDS011;13247;47.504;7.382;2023-05-09T06:34:21;3.25;;;1.67;;
21816;SDS011;13247;47.504;7.382;2023-05-09T06:37:06;1.95;;;1.52;;
21816;SDS011;13247;47.504;7.382;2023-05-09T06:39:50;1.58;;;1.48;;
21816;SDS011;13247;47.504;7.382;2023-05-09T06:42:35;1.63;;;1.52;;
21816;SDS011;13247;47.504;7.382;2023-05-09T06:45:19;1.83;;;1.63;;
21816;SDS011;13247;47.504;7.382;2023-05-09T06:48:04;2.20;;;1.55;;
21816;SDS011;13247;47.504;7.382;2023-05-09T06:50:48;1.52;;;1.42;;
21816;SDS011;13247;47.504;7.382;2023-05-09T06:53:33;5.45;;;2.05;;
21816;SDS011;13247;47.504;7.382;2023-05-09T06:56:18;3.45;;;1.95;;
21816;SDS011;13247;47.504;7.382;2023-05-09T06:59:05;2.20;;;2.00;;
21816;SDS011;13247;47.504;7.382;2023-05-09T07:01:50;1.58;;;1.48;;
21816;SDS011;13247;47.504;7.382;2023-05-09T07:04:34;2.15;;;1.65;;
21816;SDS011;13247;47.504;7.382;2023-05-09T07:07:19;2.42;;;1.88;;
21816;SDS011;13247;47.504;7.382;2023-05-09T07:10:05;3.58;;;2.25;;
21816;SDS011;13247;47.504;7.382;2023-05-09T07:12:50;3.45;;;1.75;;
21816;SDS011;13247;47.504;7.382;2023-05-09T07:15:35;2.10;;;1.80;;
21816;SDS011;13247;47.504;7.382;2023-05-09T07:18:19;3.22;;;2.05;;
21816;SDS011;13247;47.504;7.382;2023-05-09T07:21:04;2.28;;;1.73;;
21816;SDS011;13247;47.504;7.382;2023-05-09T07:23:49;4.05;;;1.73;;
21816;SDS011;13247;47.504;7.382;2023-05-09T07:26:34;1.67;;;1.52;;
21816;SDS011;13247;47.504;7.382;2023-05-09T07:29:19;1.73;;;1.63;;
21816;SDS011;13247;47.504;7.382;2023-05-09T07:32:04;1.73;;;1.52;;
21816;SDS011;13247;47.504;7.382;2023-05-09T07:34:48;2.05;;;1.60;;
21816;SDS011;13247;47.504;7.382;2023-05-09T07:37:33;1.92;;;1.67;;
21816;SDS011;13247;47.504;7.382;2023-05-09T07:40:20;1.75;;;1.65;;
21816;SDS011;13247;47.504;7.382;2023-05-09T07:43:04;2.00;;;1.80;;
21816;SDS011;13247;47.504;7.382;2023-05-09T07:45:50;2.13;;;1.83;;
21816;SDS011;13247;47.504;7.382;2023-05-09T07:48:34;1.70;;;1.60;;
21816;SDS011;13247;47.504;7.382;2023-05-09T07:51:19;2.50;;;1.92;;
21816;SDS011;13247;47.504;7.382;2023-05-09T07:54:03;3.20;;;1.70;;
21816;SDS011;13247;47.504;7.382;2023-05-09T07:56:48;2.78;;;2.10;;
21816;SDS011;13247;47.504;7.382;2023-05-09T07:59:32;2.90;;;1.80;;
21816;SDS011;13247;47.504;7.382;2023-05-09T08:02:17;2.38;;;1.60;;
21816;SDS011;13247;47.504;7.382;2023-05-09T08:05:01;2.47;;;1.75;;
21816;SDS011;13247;47.504;7.382;2023-05-09T08:07:46;1.70;;;1.60;;
21816;SDS011;13247;47.504;7.382;2023-05-09T08:10:31;1.92;;;1.70;;
21816;SDS011;13247;47.504;7.382;2023-05-09T08:13:16;5.00;;;1.77;;
21816;SDS011;13247;47.504;7.382;2023-05-09T08:16:01;1.42;;;1.33;;
21816;SDS011;13247;47.504;7.382;2023-05-09T08:18:46;1.83;;;1.70;;
21816;SDS011;13247;47.504;7.382;2023-05-09T08:21:31;2.47;;;1.90;;
21816;SDS011;13247;47.504;7.382;2023-05-09T08:24:15;1.60;;;1.50;;
21816;SDS011;13247;47.504;7.382;2023-05-09T08:26:59;1.70;;;1.58;;
21816;SDS011;13247;47.504;7.382;2023-05-09T08:29:45;1.90;;;1.70;;
21816;SDS011;13247;47.504;7.382;2023-05-09T08:32:30;3.17;;;1.73;;
21816;SDS011;13247;47.504;7.382;2023-05-09T08:35:15;1.33;;;1.23;;
21816;SDS011;13247;47.504;7.382;2023-05-09T08:37:59;3.38;;;1.90;;
21816;SDS011;13247;47.504;7.382;2023-05-09T08:40:44;1.58;;;1.48;;
21816;SDS011;13247;47.504;7.382;2023-05-09T08:43:29;1.85;;;1.55;;
21816;SDS011;13247;47.504;7.382;2023-05-09T08:46:17;1.20;;;1.10;;
21816;SDS011;13247;47.504;7.382;2023-05-09T08:49:10;1.40;;;1.30;;
21816;SDS011;13247;47.504;7.382;2023-05-09T08:51:56;1.55;;;1.45;;
21816;SDS011;13247;47.504;7.382;2023-05-09T08:54:41;1.45;;;1.30;;
21816;SDS011;13247;47.504;7.382;2023-05-09T08:57:27;1.40;;;1.30;;
21816;SDS011;13247;47.504;7.382;2023-05-09T09:00:12;1.38;;;1.27;;
21816;SDS011;13247;47.504;7.382;2023-05-09T09:03:00;1.42;;;1.27;;
21816;SDS011;13247;47.504;7.382;2023-05-09T09:05:48;1.92;;;1.30;;
21816;SDS011;13247;47.504;7.382;2023-05-09T09:08:36;1.45;;;1.20;;
21816;SDS011;13247;47.504;7.382;2023-05-09T09:11:21;1.23;;;1.13;;
21816;SDS011;13247;47.504;7.382;2023-05-09T09:14:11;1.40;;;1.20;;
21816;SDS011;13247;47.504;7.382;2023-05-09T09:16:59;1.48;;;1.20;;
21816;SDS011;13247;47.504;7.382;2023-05-09T09:19:44;1.00;;;1.00;;
21816;SDS011;13247;47.504;7.382;2023-05-09T09:22:32;1.75;;;1.15;;
21816;SDS011;13247;47.504;7.382;2023-05-09T09:25:17;3.85;;;1.25;;
21816;SDS011;13247;47.504;7.382;2023-05-09T09:28:03;1.15;;;1.05;;
21816;SDS011;13247;47.504;7.382;2023-05-09T09:30:47;1.40;;;1.10;;
21816;SDS011;13247;47.504;7.382;2023-05-09T09:33:32;1.27;;;1.02;;
21816;SDS011;13247;47.504;7.382;2023-05-09T09:36:25;1.20;;;1.10;;
21816;SDS011;13247;47.504;7.382;2023-05-09T09:39:11;1.45;;;1.20;;
21816;SDS011;13247;47.504;7.382;2023-05-09T09:41:56;2.50;;;1.20;;
21816;SDS011;13247;47.504;7.382;2023-05-09T09:45:00;1.92;;;1.40;;
21816;SDS011;13247;47.504;7.382;2023-05-09T09:47:46;2.25;;;1.40;;
21816;SDS011;13247;47.504;7.382;2023-05-09T09:50:32;2.13;;;1.63;;
21816;SDS011;13247;47.504;7.382;2023-05-09T09:53:18;1.42;;;1.33;;
21816;SDS011;13247;47.504;7.382;2023-05-09T09:56:03;2.03;;;1.50;;
21816;SDS011;13247;47.504;7.382;2023-05-09T09:58:48;2.88;;;1.50;;
21816;SDS011;13247;47.504;7.382;2023-05-09T10:02:03;1.60;;;1.50;;
21816;SDS011;13247;47.504;7.382;2023-05-09T10:04:49;1.65;;;1.42;;
21816;SDS011;13247;47.504;7.382;2023-05-09T10:07:34;2.28;;;1.45;;
21816;SDS011;13247;47.504;7.382;2023-05-09T10:10:19;3.28;;;2.00;;
21816;SDS011;13247;47.504;7.382;2023-05-09T10:13:05;2.50;;;1.75;;
21816;SDS011;13247;47.504;7.382;2023-05-09T10:15:56;2.75;;;1.73;;
21816;SDS011;13247;47.504;7.382;2023-05-09T10:18:44;3.55;;;2.28;;
21816;SDS011;13247;47.504;7.382;2023-05-09T10:21:32;1.83;;;1.67;;
21816;SDS011;13247;47.504;7.382;2023-05-09T10:24:20;3.78;;;1.50;;
21816;SDS011;13247;47.504;7.382;2023-05-09T10:27:24;2.00;;;1.80;;
21816;SDS011;13247;47.504;7.382;2023-05-09T10:30:14;9.02;;;1.75;;
21816;SDS011;13247;47.504;7.382;2023-05-09T10:35:46;3.28;;;1.42;;
21816;SDS011;13247;47.504;7.382;2023-05-09T10:38:32;1.60;;;1.50;;
21816;SDS011;13247;47.504;7.382;2023-05-09T10:41:19;4.18;;;1.73;;
21816;SDS011;13247;47.504;7.382;2023-05-09T10:44:04;3.13;;;1.75;;
21816;SDS011;13247;47.504;7.382;2023-05-09T10:46:49;4.47;;;2.00;;
21816;SDS011;13247;47.504;7.382;2023-05-09T10:49:35;1.73;;;1.63;;
21816;SDS011;13247;47.504;7.382;2023-05-09T10:52:20;3.00;;;1.90;;
21816;SDS011;13247;47.504;7.382;2023-05-09T10:55:05;2.50;;;2.13;;
21816;SDS011;13247;47.504;7.382;2023-05-09T10:57:52;2.65;;;1.73;;
21816;SDS011;13247;47.504;7.382;2023-05-09T11:00:39;4.20;;;2.20;;
21816;SDS011;13247;47.504;7.382;2023-05-09T11:03:25;1.80;;;1.60;;
21816;SDS011;13247;47.504;7.382;2023-05-09T11:06:11;3.15;;;1.75;;
21816;SDS011;13247;47.504;7.382;2023-05-09T11:09:35;1.70;;;1.60;;
21816;SDS011;13247;47.504;7.382;2023-05-09T11:12:24;2.42;;;1.77;;
21816;SDS011;13247;47.504;7.382;2023-05-09T11:15:09;1.67;;;1.58;;
21816;SDS011;13247;47.504;7.382;2023-05-09T11:18:07;1.40;;;1.30;;
21816;SDS011;13247;47.504;7.382;2023-05-09T11:20:53;3.55;;;1.45;;
21816;SDS011;13247;47.504;7.382;2023-05-09T11:23:38;2.03;;;1.70;;
21816;SDS011;13247;47.504;7.382;2023-05-09T11:26:24;3.50;;;1.95;;
21816;SDS011;13247;47.504;7.382;2023-05-09T11:29:13;1.80;;;1.65;;
21816;SDS011;13247;47.504;7.382;2023-05-09T11:32:08;2.20;;;1.58;;
21816;SDS011;13247;47.504;7.382;2023-05-09T11:35:07;5.03;;;1.77;;
21816;SDS011;13247;47.504;7.382;2023-05-09T11:38:04;4.65;;;1.90;;
21816;SDS011;13247;47.504;7.382;2023-05-09T11:40:49;2.13;;;1.90;;
21816;SDS011;13247;47.504;7.382;2023-05-09T11:43:36;2.17;;;1.77;;
21816;SDS011;13247;47.504;7.382;2023-05-09T11:46:22;3.00;;;1.80;;
21816;SDS011;13247;47.504;7.382;2023-05-09T11:49:06;1.67;;;1.58;;
21816;SDS011;13247;47.504;7.382;2023-05-09T11:51:51;7.80;;;1.40;;
21816;SDS011;13247;47.504;7.382;2023-05-09T11:54:39;6.03;;;1.98;;
21816;SDS011;13247;47.504;7.382;2023-05-09T11:57:24;1.95;;;1.75;;
21816;SDS011;13247;47.504;7.382;2023-05-09T12:00:13;1.70;;;1.52;;
21816;SDS011;13247;47.504;7.382;2023-05-09T12:03:04;1.77;;;1.38;;
21816;SDS011;13247;47.504;7.382;2023-05-09T12:05:49;1.70;;;1.60;;
21816;SDS011;13247;47.504;7.382;2023-05-09T12:08:34;1.35;;;1.25;;
21816;SDS011;13247;47.504;7.382;2023-05-09T12:11:19;2.33;;;2.00;;
21816;SDS011;13247;47.504;7.382;2023-05-09T12:14:06;1.75;;;1.52;;
21816;SDS011;13247;47.504;7.382;2023-05-09T12:16:51;1.83;;;1.73;;
21816;SDS011;13247;47.504;7.382;2023-05-09T12:19:35;1.60;;;1.50;;
21816;SDS011;13247;47.504;7.382;2023-05-09T12:22:20;7.40;;;1.90;;
21816;SDS011;13247;47.504;7.382;2023-05-09T12:25:06;1.55;;;1.45;;
21816;SDS011;13247;47.504;7.382;2023-05-09T12:27:52;1.67;;;1.50;;
21816;SDS011;13247;47.504;7.382;2023-05-09T12:30:37;5.22;;;2.05;;
21816;SDS011;13247;47.504;7.382;2023-05-09T12:33:22;1.65;;;1.45;;
21816;SDS011;13247;47.504;7.382;2023-05-09T12:36:08;1.55;;;1.45;;
21816;SDS011;13247;47.504;7.382;2023-05-09T12:38:54;5.72;;;1.85;;
21816;SDS011;13247;47.504;7.382;2023-05-09T12:41:43;4.13;;;1.65;;
21816;SDS011;13247;47.504;7.382;2023-05-09T12:44:28;3.10;;;1.67;;
21816;SDS011;13247;47.504;7.382;2023-05-09T12:47:13;1.67;;;1.58;;
21816;SDS011;13247;47.504;7.382;2023-05-09T12:49:58;2.60;;;1.52;;
21816;SDS011;13247;47.504;7.382;2023-05-09T12:52:48;3.25;;;1.65;;
21816;SDS011;13247;47.504;7.382;2023-05-09T12:55:38;2.53;;;1.83;;
21816;SDS011;13247;47.504;7.382;2023-05-09T12:58:27;2.50;;;1.80;;
21816;SDS011;13247;47.504;7.382;2023-05-09T13:01:16;2.33;;;2.10;;
21816;SDS011;13247;47.504;7.382;2023-05-09T13:04:02;3.33;;;1.80;;
21816;SDS011;13247;47.504;7.382;2023-05-09T13:06:52;6.03;;;2.10;;
21816;SDS011;13247;47.504;7.382;2023-05-09T13:09:52;2.78;;;2.00;;
21816;SDS011;13247;47.504;7.382;2023-05-09T13:12:40;3.10;;;2.33;;
21816;SDS011;13247;47.504;7.382;2023-05-09T13:15:31;5.75;;;2.33;;
21816;SDS011;13247;47.504;7.382;2023-05-09T13:18:16;3.08;;;2.28;;
21816;SDS011;13247;47.504;7.382;2023-05-09T13:21:00;9.32;;;2.85;;
21816;SDS011;13247;47.504;7.382;2023-05-09T13:23:46;2.70;;;2.20;;
21816;SDS011;13247;47.504;7.382;2023-05-09T13:26:32;7.55;;;4.20;;
21816;SDS011;13247;47.504;7.382;2023-05-09T13:29:17;5.45;;;4.07;;
21816;SDS011;13247;47.504;7.382;2023-05-09T13:32:01;22.98;;;12.95;;
21816;SDS011;13247;47.504;7.382;2023-05-09T13:34:46;10.85;;;6.57;;
21816;SDS011;13247;47.504;7.382;2023-05-09T13:37:30;7.43;;;4.38;;
21816;SDS011;13247;47.504;7.382;2023-05-09T13:40:15;5.45;;;4.05;;
21816;SDS011;13247;47.504;7.382;2023-05-09T13:43:03;5.35;;;3.70;;
21816;SDS011;13247;47.504;7.382;2023-05-09T13:45:47;4.47;;;3.25;;
21816;SDS011;13247;47.504;7.382;2023-05-09T13:48:32;5.15;;;3.55;;
21816;SDS011;13247;47.504;7.382;2023-05-09T13:51:16;3.40;;;2.92;;
21816;SDS011;13247;47.504;7.382;2023-05-09T13:54:01;7.32;;;3.40;;
21816;SDS011;13247;47.504;7.382;2023-05-09T13:56:48;1.52;;;1.42;;
21816;SDS011;13247;47.504;7.382;2023-05-09T13:59:33;1.33;;;1.05;;
21816;SDS011;13247;47.504;7.382;2023-05-09T14:02:18;0.85;;;0.85;;
21816;SDS011;13247;47.504;7.382;2023-05-09T14:05:03;1.25;;;1.10;;
21816;SDS011;13247;47.504;7.382;2023-05-09T14:07:51;1.52;;;1.10;;
21816;SDS011;13247;47.504;7.382;2023-05-09T14:10:36;1.95;;;1.10;;
21816;SDS011;13247;47.504;7.382;2023-05-09T14:13:20;3.25;;;1.33;;
21816;SDS011;13247;47.504;7.382;2023-05-09T14:16:05;1.92;;;1.23;;
21816;SDS011;13247;47.504;7.382;2023-05-09T14:18:51;2.50;;;1.50;;
21816;SDS011;13247;47.504;7.382;2023-05-09T14:21:35;2.80;;;1.65;;
21816;SDS011;13247;47.504;7.382;2023-05-09T14:24:20;8.27;;;1.00;;
21816;SDS011;13247;47.504;7.382;2023-05-09T14:27:05;1.55;;;1.45;;
21816;SDS011;13247;47.504;7.382;2023-05-09T14:29:49;2.03;;;1.77;;
21816;SDS011;13247;47.504;7.382;2023-05-09T14:32:34;5.22;;;2.33;;
21816;SDS011;13247;47.504;7.382;2023-05-09T14:35:18;2.97;;;2.22;;
21816;SDS011;13247;47.504;7.382;2023-05-09T14:38:03;3.88;;;2.47;;
21816;SDS011;13247;47.504;7.382;2023-05-09T14:40:47;4.60;;;2.95;;
21816;SDS011;13247;47.504;7.382;2023-05-09T14:43:32;3.42;;;2.60;;
21816;SDS011;13247;47.504;7.382;2023-05-09T14:46:17;3.08;;;2.30;;
21816;SDS011;13247;47.504;7.382;2023-05-09T14:49:02;3.60;;;2.30;;
21816;SDS011;13247;47.504;7.382;2023-05-09T14:51:47;2.10;;;1.90;;
21816;SDS011;13247;47.504;7.382;2023-05-09T14:54:31;2.22;;;2.03;;
21816;SDS011;13247;47.504;7.382;2023-05-09T14:57:17;2.05;;;1.80;;
21816;SDS011;13247;47.504;7.382;2023-05-09T15:00:02;2.63;;;2.13;;
21816;SDS011;13247;47.504;7.382;2023-05-09T15:02:47;2.65;;;1.90;;
21816;SDS011;13247;47.504;7.382;2023-05-09T15:05:32;4.40;;;2.10;;
21816;SDS011;13247;47.504;7.382;2023-05-09T15:08:17;5.63;;;1.90;;
21816;SDS011;13247;47.504;7.382;2023-05-09T15:11:02;3.47;;;1.95;;
21816;SDS011;13247;47.504;7.382;2023-05-09T15:13:46;3.40;;;2.10;;
21816;SDS011;13247;47.504;7.382;2023-05-09T15:16:33;2.58;;;2.38;;
21816;SDS011;13247;47.504;7.382;2023-05-09T15:19:17;3.85;;;2.65;;
21816;SDS011;13247;47.504;7.382;2023-05-09T15:22:04;3.42;;;2.70;;
21816;SDS011;13247;47.504;7.382;2023-05-09T15:24:51;6.75;;;3.38;;
21816;SDS011;13247;47.504;7.382;2023-05-09T15:27:35;4.85;;;2.90;;
21816;SDS011;13247;47.504;7.382;2023-05-09T15:30:20;3.03;;;2.40;;
21816;SDS011;13247;47.504;7.382;2023-05-09T15:33:05;7.95;;;2.88;;
21816;SDS011;13247;47.504;7.382;2023-05-09T15:35:52;2.78;;;2.42;;
21816;SDS011;13247;47.504;7.382;2023-05-09T15:38:41;3.80;;;2.97;;
21816;SDS011;13247;47.504;7.382;2023-05-09T15:41:28;7.88;;;3.70;;
21816;SDS011;13247;47.504;7.382;2023-05-09T15:44:14;17.95;;;13.13;;
21816;SDS011;13247;47.504;7.382;2023-05-09T15:46:59;4.22;;;3.75;;
21816;SDS011;13247;47.504;7.382;2023-05-09T15:49:44;4.45;;;2.53;;
21816;SDS011;13247;47.504;7.382;2023-05-09T15:52:29;4.47;;;2.70;;
21816;SDS011;13247;47.504;7.382;2023-05-09T15:55:14;2.25;;;2.05;;
21816;SDS011;13247;47.504;7.382;2023-05-09T15:57:58;2.30;;;2.10;;
21816;SDS011;13247;47.504;7.382;2023-05-09T16:00:43;4.97;;;2.67;;
21816;SDS011;13247;47.504;7.382;2023-05-09T16:03:28;2.78;;;2.20;;
21816;SDS011;13247;47.504;7.382;2023-05-09T16:06:12;2.92;;;2.20;;
21816;SDS011;13247;47.504;7.382;2023-05-09T16:08:57;3.95;;;2.50;;
21816;SDS011;13247;47.504;7.382;2023-05-09T16:11:45;4.88;;;2.72;;
21816;SDS011;13247;47.504;7.382;2023-05-09T16:14:29;9.32;;;5.80;;
21816;SDS011;13247;47.504;7.382;2023-05-09T16:17:14;8.93;;;6.10;;
21816;SDS011;13247;47.504;7.382;2023-05-09T16:19:59;5.35;;;4.05;;
21816;SDS011;13247;47.504;7.382;2023-05-09T16:22:44;5.35;;;2.90;;
21816;SDS011;13247;47.504;7.382;2023-05-09T16:25:29;7.45;;;4.85;;
21816;SDS011;13247;47.504;7.382;2023-05-09T16:28:14;7.60;;;4.38;;
21816;SDS011;13247;47.504;7.382;2023-05-09T16:30:58;7.57;;;4.03;;
21816;SDS011;13247;47.504;7.382;2023-05-09T16:33:47;11.98;;;7.65;;
21816;SDS011;13247;47.504;7.382;2023-05-09T16:36:31;15.45;;;8.93;;
21816;SDS011;13247;47.504;7.382;2023-05-09T16:39:16;5.72;;;4.10;;
21816;SDS011;13247;47.504;7.382;2023-05-09T16:42:01;9.18;;;4.78;;
21816;SDS011;13247;47.504;7.382;2023-05-09T16:44:46;6.40;;;4.70;;
21816;SDS011;13247;47.504;7.382;2023-05-09T16:47:31;7.15;;;4.63;;
21816;SDS011;13247;47.504;7.382;2023-05-09T16:50:15;4.78;;;2.97;;
21816;SDS011;13247;47.504;7.382;2023-05-09T16:53:00;3.28;;;2.47;;
21816;SDS011;13247;47.504;7.382;2023-05-09T16:55:46;3.42;;;2.50;;